Airfield :
LOGIN :

Register | Disclaimer

   EN    FR    IT 

 










Legend :    VFR   Marginal VFR   IFR   Intensive IFR   Very Intensive IFR
Visi :
Ceiling :
>= 8 km
>= 3000ft
5 to 8 km
1000 to 3000 ft
1500m to 5 km
500 to 1000 ft
800 to 1500m
200 to 500 ft
< 800m
< 200 ft
Symbols :   Thunderstorms  Fog  Heavy snow  Heavy precipitations  Wind > 20 kt
SIGMETs :     Misc.  Thunderstorms  Icing  Turbulence  Mountain Waves  Volcanic Ashes







- Airport Elevation : 659 ft
- IATA code : LYN
- Download approach charts


LFLY - Lyon Bron

CURRENT METAR :
  • 170730Z AUTO 18003KT 8000 NSC 12/10 Q1024 NOSIG

EXPIRED METARs :
  • 170700Z AUTO 18004KT 8000 NSC 11/10 Q1024 NOSIG
  • 170630Z AUTO 21002KT 8000 NSC 10/09 Q1024 NOSIG
  • 170600Z AUTO VRB01KT 8000 NSC 10/09 Q1024 NOSIG
  • 170530Z AUTO 22004KT 9000 NSC 10/09 Q1024 NOSIG
  • 170500Z AUTO 20003KT CAVOK 10/09 Q1024 NOSIG

TAF TAF LFLY
Valid from the 17 at 06:00 until the 18 at 06:00 UTC


170500Z 1706/1806 16003KT CAVOK
BECMG 1710/1712 17010KT
ATIS : +33 4 72 15 87 96
No reported NOTAMs for that airfield.



MET'MAP, your aeronautical weather chart ! - Copyright ORBIFLY December 2007 - Disclaimer

ORBIFLY MET'MAP TEAM :

Programming & Development : Alexandra Zaïnal
Concept & Development : Baudouin d'Aumeries
Co-Development & Prog : Marc-Olivier Méhu
Technical & hardware support : Manuel Goepfert

Contact : metmap@orbifly.com




SOURCES & CREDITS :

   NOAA